Terminal Aerodrome Forecast
Issued by NWS Des Moines, IA

Home | Current Version | Previous Version | Text Only | Print | Product List | Glossary On
Versions: 1 2 3 4 5 6 7 8 9 10 11 12 13 14 15 16 17 18 19 20 21 22 23 24 25 26 27 28 29 30 31 32 33 34 35 36
000
FTUS43 KDMX 222335
TAFALO
TAF
KALO 222335Z 2300/2324 03005KT P6SM FEW080
     FM230600 VRB04KT 5SM BR FEW010
     FM230900 VRB03KT 2SM BR SCT009
      TEMPO 2310/2313 1/2SM FG BKN005
     FM231300 07005KT 4SM BR SCT021
     FM231500 11009KT P6SM SCT040
     FM231800 12012G17KT P6SM FEW040 SCT160=

USA.gov is the U.S. government's official web portal to all federal, state and local government web resources and services.